sensor_id;sensor_type;location;lat;lon;timestamp;temperature;humidity
7530;DHT22;3806;52.270;10.544;2022-10-12T00:01:53;8.50;99.70
7530;DHT22;3806;52.270;10.544;2022-10-12T00:04:18;8.50;99.70
7530;DHT22;3806;52.270;10.544;2022-10-12T00:06:44;8.40;99.80
7530;DHT22;3806;52.270;10.544;2022-10-12T00:09:09;8.40;99.90
7530;DHT22;3806;52.270;10.544;2022-10-12T00:11:35;8.50;99.90
7530;DHT22;3806;52.270;10.544;2022-10-12T00:14:01;8.40;99.90
7530;DHT22;3806;52.270;10.544;2022-10-12T00:16:27;8.40;99.90
7530;DHT22;3806;52.270;10.544;2022-10-12T00:18:56;8.40;99.90
7530;DHT22;3806;52.270;10.544;2022-10-12T00:21:24;8.30;99.90
7530;DHT22;3806;52.270;10.544;2022-10-12T00:23:50;8.30;99.90
7530;DHT22;3806;52.270;10.544;2022-10-12T00:26:20;8.40;99.90
7530;DHT22;3806;52.270;10.544;2022-10-12T00:28:47;8.30;99.80
7530;DHT22;3806;52.270;10.544;2022-10-12T00:31:15;8.30;99.80
7530;DHT22;3806;52.270;10.544;2022-10-12T00:33:41;8.30;99.80
7530;DHT22;3806;52.270;10.544;2022-10-12T00:36:27;8.20;99.90
7530;DHT22;3806;52.270;10.544;2022-10-12T00:38:54;8.20;99.90
7530;DHT22;3806;52.270;10.544;2022-10-12T00:41:23;8.10;99.90
7530;DHT22;3806;52.270;10.544;2022-10-12T00:43:50;8.10;99.90
7530;DHT22;3806;52.270;10.544;2022-10-12T00:46:17;8.10;99.90
7530;DHT22;3806;52.270;10.544;2022-10-12T00:48:48;8.10;99.90
7530;DHT22;3806;52.270;10.544;2022-10-12T00:51:15;8.10;99.90
7530;DHT22;3806;52.270;10.544;2022-10-12T00:53:49;8.10;99.90
7530;DHT22;3806;52.270;10.544;2022-10-12T00:56:19;8.10;99.90
7530;DHT22;3806;52.270;10.544;2022-10-12T00:58:47;8.10;99.90
7530;DHT22;3806;52.270;10.544;2022-10-12T01:01:14;8.10;99.90
7530;DHT22;3806;52.270;10.544;2022-10-12T01:03:41;8.10;99.90
7530;DHT22;3806;52.270;10.544;2022-10-12T01:06:08;8.10;99.90
7530;DHT22;3806;52.270;10.544;2022-10-12T01:08:34;8.10;99.90
7530;DHT22;3806;52.270;10.544;2022-10-12T01:11:00;8.10;99.90
7530;DHT22;3806;52.270;10.544;2022-10-12T01:13:26;8.10;99.90
7530;DHT22;3806;52.270;10.544;2022-10-12T01:18:49;8.00;99.90
7530;DHT22;3806;52.270;10.544;2022-10-12T01:21:21;8.00;99.90
7530;DHT22;3806;52.270;10.544;2022-10-12T01:26:40;7.90;99.90
7530;DHT22;3806;52.270;10.544;2022-10-12T01:29:38;7.90;99.90
7530;DHT22;3806;52.270;10.544;2022-10-12T01:32:26;7.90;99.90
7530;DHT22;3806;52.270;10.544;2022-10-12T01:38:03;7.90;99.90
7530;DHT22;3806;52.270;10.544;2022-10-12T01:40:39;7.80;99.90
7530;DHT22;3806;52.270;10.544;2022-10-12T01:43:07;7.80;99.90
7530;DHT22;3806;52.270;10.544;2022-10-12T01:45:33;7.80;99.90
7530;DHT22;3806;52.270;10.544;2022-10-12T01:47:58;7.90;99.90
7530;DHT22;3806;52.270;10.544;2022-10-12T01:50:32;7.90;99.90
7530;DHT22;3806;52.270;10.544;2022-10-12T01:56:17;7.80;99.90
7530;DHT22;3806;52.270;10.544;2022-10-12T02:02:03;7.80;99.90
7530;DHT22;3806;52.270;10.544;2022-10-12T02:04:50;7.80;99.90
7530;DHT22;3806;52.270;10.544;2022-10-12T02:07:26;7.80;99.90
7530;DHT22;3806;52.270;10.544;2022-10-12T02:09:58;7.80;99.90
7530;DHT22;3806;52.270;10.544;2022-10-12T02:12:27;7.70;99.90
7530;DHT22;3806;52.270;10.544;2022-10-12T02:14:59;7.80;99.90
7530;DHT22;3806;52.270;10.544;2022-10-12T02:17:26;7.80;99.90
7530;DHT22;3806;52.270;10.544;2022-10-12T02:19:56;7.80;99.90
7530;DHT22;3806;52.270;10.544;2022-10-12T02:22:25;7.70;99.90
7530;DHT22;3806;52.270;10.544;2022-10-12T02:24:55;7.70;99.90
7530;DHT22;3806;52.270;10.544;2022-10-12T02:27:23;7.70;99.90
7530;DHT22;3806;52.270;10.544;2022-10-12T02:29:49;7.70;99.90
7530;DHT22;3806;52.270;10.544;2022-10-12T02:37:42;7.60;99.90
7530;DHT22;3806;52.270;10.544;2022-10-12T02:40:18;7.50;99.90
7530;DHT22;3806;52.270;10.544;2022-10-12T02:42:50;7.50;99.90
7530;DHT22;3806;52.270;10.544;2022-10-12T02:45:18;7.40;99.90
7530;DHT22;3806;52.270;10.544;2022-10-12T02:47:47;7.40;99.90
7530;DHT22;3806;52.270;10.544;2022-10-12T02:50:14;7.40;99.90
7530;DHT22;3806;52.270;10.544;2022-10-12T02:52:42;7.30;99.90
7530;DHT22;3806;52.270;10.544;2022-10-12T02:55:08;7.30;99.90
7530;DHT22;3806;52.270;10.544;2022-10-12T02:57:33;7.30;99.90
7530;DHT22;3806;52.270;10.544;2022-10-12T02:59:59;7.30;99.90
7530;DHT22;3806;52.270;10.544;2022-10-12T03:02:24;7.30;99.90
7530;DHT22;3806;52.270;10.544;2022-10-12T03:04:50;7.30;99.90
7530;DHT22;3806;52.270;10.544;2022-10-12T03:07:16;7.30;99.90
7530;DHT22;3806;52.270;10.544;2022-10-12T03:09:41;7.30;99.90
7530;DHT22;3806;52.270;10.544;2022-10-12T03:12:07;7.20;99.90
7530;DHT22;3806;52.270;10.544;2022-10-12T03:14:32;7.20;99.90
7530;DHT22;3806;52.270;10.544;2022-10-12T03:16:59;7.30;99.90
7530;DHT22;3806;52.270;10.544;2022-10-12T03:19:25;7.20;99.90
7530;DHT22;3806;52.270;10.544;2022-10-12T03:21:51;7.30;99.90
7530;DHT22;3806;52.270;10.544;2022-10-12T03:24:16;7.30;99.90
7530;DHT22;3806;52.270;10.544;2022-10-12T03:26:42;7.30;99.90
7530;DHT22;3806;52.270;10.544;2022-10-12T03:29:07;7.30;99.90
7530;DHT22;3806;52.270;10.544;2022-10-12T03:31:33;7.20;99.90
7530;DHT22;3806;52.270;10.544;2022-10-12T03:33:59;7.20;99.90
7530;DHT22;3806;52.270;10.544;2022-10-12T03:36:25;7.20;99.90
7530;DHT22;3806;52.270;10.544;2022-10-12T03:38:51;7.20;99.90
7530;DHT22;3806;52.270;10.544;2022-10-12T03:41:16;7.20;99.90
7530;DHT22;3806;52.270;10.544;2022-10-12T03:43:42;7.20;99.90
7530;DHT22;3806;52.270;10.544;2022-10-12T03:46:07;7.10;99.90
7530;DHT22;3806;52.270;10.544;2022-10-12T03:48:33;7.10;99.90
7530;DHT22;3806;52.270;10.544;2022-10-12T03:50:59;7.10;99.90
7530;DHT22;3806;52.270;10.544;2022-10-12T03:53:24;7.00;99.90
7530;DHT22;3806;52.270;10.544;2022-10-12T03:55:50;7.00;99.90
7530;DHT22;3806;52.270;10.544;2022-10-12T03:58:15;6.90;99.90
7530;DHT22;3806;52.270;10.544;2022-10-12T04:00:41;6.90;99.90
7530;DHT22;3806;52.270;10.544;2022-10-12T04:03:07;6.90;99.90
7530;DHT22;3806;52.270;10.544;2022-10-12T04:05:32;6.90;99.90
7530;DHT22;3806;52.270;10.544;2022-10-12T04:07:58;6.90;99.90
7530;DHT22;3806;52.270;10.544;2022-10-12T04:10:25;6.90;99.90
7530;DHT22;3806;52.270;10.544;2022-10-12T04:12:51;6.90;99.90
7530;DHT22;3806;52.270;10.544;2022-10-12T04:15:16;6.90;99.90
7530;DHT22;3806;52.270;10.544;2022-10-12T04:17:45;6.90;99.90
7530;DHT22;3806;52.270;10.544;2022-10-12T04:20:11;6.90;99.90
7530;DHT22;3806;52.270;10.544;2022-10-12T04:22:38;7.00;99.90
7530;DHT22;3806;52.270;10.544;2022-10-12T04:25:04;6.90;99.90
7530;DHT22;3806;52.270;10.544;2022-10-12T04:27:29;6.90;99.90
7530;DHT22;3806;52.270;10.544;2022-10-12T04:29:55;6.90;99.90
7530;DHT22;3806;52.270;10.544;2022-10-12T04:32:21;6.90;99.90
7530;DHT22;3806;52.270;10.544;2022-10-12T04:34:46;6.90;99.90
7530;DHT22;3806;52.270;10.544;2022-10-12T04:37:12;6.90;99.90
7530;DHT22;3806;52.270;10.544;2022-10-12T04:39:37;6.90;99.90
7530;DHT22;3806;52.270;10.544;2022-10-12T04:42:03;6.90;99.90
7530;DHT22;3806;52.270;10.544;2022-10-12T04:44:31;6.90;99.90
7530;DHT22;3806;52.270;10.544;2022-10-12T04:46:57;6.90;99.90
7530;DHT22;3806;52.270;10.544;2022-10-12T04:49:22;6.90;99.90
7530;DHT22;3806;52.270;10.544;2022-10-12T04:51:48;6.90;99.90
7530;DHT22;3806;52.270;10.544;2022-10-12T04:54:13;6.90;99.90
7530;DHT22;3806;52.270;10.544;2022-10-12T04:56:39;6.90;99.90
7530;DHT22;3806;52.270;10.544;2022-10-12T04:59:04;6.80;99.80
7530;DHT22;3806;52.270;10.544;2022-10-12T05:01:30;6.80;99.90
7530;DHT22;3806;52.270;10.544;2022-10-12T05:03:56;6.70;99.80
7530;DHT22;3806;52.270;10.544;2022-10-12T05:06:21;6.70;99.90
7530;DHT22;3806;52.270;10.544;2022-10-12T05:08:47;6.70;99.90
7530;DHT22;3806;52.270;10.544;2022-10-12T05:11:12;6.70;99.90
7530;DHT22;3806;52.270;10.544;2022-10-12T05:13:38;6.60;99.90
7530;DHT22;3806;52.270;10.544;2022-10-12T05:16:03;6.70;99.90
7530;DHT22;3806;52.270;10.544;2022-10-12T05:18:29;6.70;99.90
7530;DHT22;3806;52.270;10.544;2022-10-12T05:20:55;6.70;99.90
7530;DHT22;3806;52.270;10.544;2022-10-12T05:23:20;6.70;99.90
7530;DHT22;3806;52.270;10.544;2022-10-12T05:25:46;6.70;99.90
7530;DHT22;3806;52.270;10.544;2022-10-12T05:28:11;6.70;99.90
7530;DHT22;3806;52.270;10.544;2022-10-12T05:30:37;6.70;99.90
7530;DHT22;3806;52.270;10.544;2022-10-12T05:33:03;6.70;99.90
7530;DHT22;3806;52.270;10.544;2022-10-12T05:35:29;6.70;99.90
7530;DHT22;3806;52.270;10.544;2022-10-12T05:37:54;6.70;99.90
7530;DHT22;3806;52.270;10.544;2022-10-12T05:40:20;6.70;99.90
7530;DHT22;3806;52.270;10.544;2022-10-12T05:42:45;6.70;99.90
7530;DHT22;3806;52.270;10.544;2022-10-12T05:45:11;6.70;99.90
7530;DHT22;3806;52.270;10.544;2022-10-12T05:47:37;6.70;99.90
7530;DHT22;3806;52.270;10.544;2022-10-12T05:50:03;6.70;99.90
7530;DHT22;3806;52.270;10.544;2022-10-12T05:52:28;6.80;99.90
7530;DHT22;3806;52.270;10.544;2022-10-12T05:54:54;6.80;99.90
7530;DHT22;3806;52.270;10.544;2022-10-12T05:57:19;6.90;99.90
7530;DHT22;3806;52.270;10.544;2022-10-12T05:59:45;6.90;99.90
7530;DHT22;3806;52.270;10.544;2022-10-12T06:02:13;7.00;99.90
7530;DHT22;3806;52.270;10.544;2022-10-12T06:04:39;7.00;99.90
7530;DHT22;3806;52.270;10.544;2022-10-12T06:07:05;7.10;99.90
7530;DHT22;3806;52.270;10.544;2022-10-12T06:09:31;7.20;99.90
7530;DHT22;3806;52.270;10.544;2022-10-12T06:11:57;7.30;99.90
7530;DHT22;3806;52.270;10.544;2022-10-12T06:14:22;7.30;99.90
7530;DHT22;3806;52.270;10.544;2022-10-12T06:16:48;7.40;99.90
7530;DHT22;3806;52.270;10.544;2022-10-12T06:19:14;7.50;99.90
7530;DHT22;3806;52.270;10.544;2022-10-12T06:21:39;7.50;99.90
7530;DHT22;3806;52.270;10.544;2022-10-12T06:24:05;7.60;99.90
7530;DHT22;3806;52.270;10.544;2022-10-12T06:26:31;7.70;99.90
7530;DHT22;3806;52.270;10.544;2022-10-12T06:28:57;7.70;99.90
7530;DHT22;3806;52.270;10.544;2022-10-12T06:31:25;7.90;99.90
7530;DHT22;3806;52.270;10.544;2022-10-12T06:33:51;8.10;99.90
7530;DHT22;3806;52.270;10.544;2022-10-12T06:36:18;8.40;99.90
7530;DHT22;3806;52.270;10.544;2022-10-12T06:38:44;8.80;99.90
7530;DHT22;3806;52.270;10.544;2022-10-12T06:41:10;9.50;99.10
7530;DHT22;3806;52.270;10.544;2022-10-12T06:43:35;10.00;96.70
7530;DHT22;3806;52.270;10.544;2022-10-12T06:46:01;10.30;95.90
7530;DHT22;3806;52.270;10.544;2022-10-12T06:48:27;10.50;94.60
7530;DHT22;3806;52.270;10.544;2022-10-12T06:50:53;10.70;94.20
7530;DHT22;3806;52.270;10.544;2022-10-12T06:53:19;10.80;93.90
7530;DHT22;3806;52.270;10.544;2022-10-12T06:55:44;10.80;93.50
7530;DHT22;3806;52.270;10.544;2022-10-12T06:58:10;10.90;93.30
7530;DHT22;3806;52.270;10.544;2022-10-12T07:00:36;10.70;93.10
7530;DHT22;3806;52.270;10.544;2022-10-12T07:03:02;10.80;93.20
7530;DHT22;3806;52.270;10.544;2022-10-12T07:05:28;10.70;93.10
7530;DHT22;3806;52.270;10.544;2022-10-12T07:07:53;10.80;92.90
7530;DHT22;3806;52.270;10.544;2022-10-12T07:10:19;10.70;92.80
7530;DHT22;3806;52.270;10.544;2022-10-12T07:12:45;10.70;93.10
7530;DHT22;3806;52.270;10.544;2022-10-12T07:15:11;10.70;93.20
7530;DHT22;3806;52.270;10.544;2022-10-12T07:17:36;10.60;93.40
7530;DHT22;3806;52.270;10.544;2022-10-12T07:20:03;10.80;93.50
7530;DHT22;3806;52.270;10.544;2022-10-12T07:22:29;10.90;93.60
7530;DHT22;3806;52.270;10.544;2022-10-12T07:24:54;11.30;93.70
7530;DHT22;3806;52.270;10.544;2022-10-12T07:27:20;12.30;94.00
7530;DHT22;3806;52.270;10.544;2022-10-12T07:29:45;14.20;91.60
7530;DHT22;3806;52.270;10.544;2022-10-12T07:32:11;16.40;85.10
7530;DHT22;3806;52.270;10.544;2022-10-12T07:34:36;18.90;73.20
7530;DHT22;3806;52.270;10.544;2022-10-12T07:37:02;21.20;60.00
7530;DHT22;3806;52.270;10.544;2022-10-12T07:39:28;23.20;50.90
7530;DHT22;3806;52.270;10.544;2022-10-12T07:41:53;25.10;44.60
7530;DHT22;3806;52.270;10.544;2022-10-12T07:44:20;26.70;38.60
7530;DHT22;3806;52.270;10.544;2022-10-12T07:46:46;27.60;33.70
7530;DHT22;3806;52.270;10.544;2022-10-12T07:49:14;27.20;33.00
7530;DHT22;3806;52.270;10.544;2022-10-12T07:51:40;26.00;33.50
7530;DHT22;3806;52.270;10.544;2022-10-12T07:54:06;25.70;34.40
7530;DHT22;3806;52.270;10.544;2022-10-12T07:56:33;26.60;33.60
7530;DHT22;3806;52.270;10.544;2022-10-12T07:58:59;28.00;31.10
7530;DHT22;3806;52.270;10.544;2022-10-12T08:01:27;29.40;29.40
7530;DHT22;3806;52.270;10.544;2022-10-12T08:03:54;30.60;28.10
7530;DHT22;3806;52.270;10.544;2022-10-12T08:06:21;30.40;27.30
7530;DHT22;3806;52.270;10.544;2022-10-12T08:08:47;30.20;27.10
7530;DHT22;3806;52.270;10.544;2022-10-12T08:11:13;30.90;26.80
7530;DHT22;3806;52.270;10.544;2022-10-12T08:13:40;31.80;26.00
7530;DHT22;3806;52.270;10.544;2022-10-12T08:16:09;32.80;25.30
7530;DHT22;3806;52.270;10.544;2022-10-12T08:18:34;33.90;23.30
7530;DHT22;3806;52.270;10.544;2022-10-12T08:21:03;34.50;23.00
7530;DHT22;3806;52.270;10.544;2022-10-12T08:23:29;35.10;22.80
7530;DHT22;3806;52.270;10.544;2022-10-12T08:25:56;35.70;21.50
7530;DHT22;3806;52.270;10.544;2022-10-12T08:28:22;35.30;21.50
7530;DHT22;3806;52.270;10.544;2022-10-12T08:30:49;34.00;22.00
7530;DHT22;3806;52.270;10.544;2022-10-12T08:33:15;33.40;22.40
7530;DHT22;3806;52.270;10.544;2022-10-12T08:35:41;33.00;22.70
7530;DHT22;3806;52.270;10.544;2022-10-12T08:38:08;32.40;23.20
7530;DHT22;3806;52.270;10.544;2022-10-12T08:46:07;34.20;23.00
7530;DHT22;3806;52.270;10.544;2022-10-12T08:48:59;35.30;22.20
7530;DHT22;3806;52.270;10.544;2022-10-12T08:51:28;36.30;21.60
7530;DHT22;3806;52.270;10.544;2022-10-12T08:54:06;36.80;20.60
7530;DHT22;3806;52.270;10.544;2022-10-12T08:56:32;37.30;20.40
7530;DHT22;3806;52.270;10.544;2022-10-12T08:59:04;38.00;20.00
7530;DHT22;3806;52.270;10.544;2022-10-12T09:04:47;38.90;19.10
7530;DHT22;3806;52.270;10.544;2022-10-12T09:07:33;39.20;18.60
7530;DHT22;3806;52.270;10.544;2022-10-12T09:12:55;40.00;17.90
7530;DHT22;3806;52.270;10.544;2022-10-12T09:15:31;40.60;17.40
7530;DHT22;3806;52.270;10.544;2022-10-12T09:17:59;41.00;17.30
7530;DHT22;3806;52.270;10.544;2022-10-12T09:20:32;41.40;16.70
7530;DHT22;3806;52.270;10.544;2022-10-12T09:23:20;40.80;16.90
7530;DHT22;3806;52.270;10.544;2022-10-12T09:25:47;40.20;17.20
7530;DHT22;3806;52.270;10.544;2022-10-12T09:28:26;40.10;17.40
7530;DHT22;3806;52.270;10.544;2022-10-12T09:32:03;40.30;17.30
7530;DHT22;3806;52.270;10.544;2022-10-12T09:33:58;40.80;17.00
7530;DHT22;3806;52.270;10.544;2022-10-12T09:36:27;41.10;16.40
7530;DHT22;3806;52.270;10.544;2022-10-12T09:38:53;40.80;16.30
7530;DHT22;3806;52.270;10.544;2022-10-12T09:41:25;40.60;16.80
7530;DHT22;3806;52.270;10.544;2022-10-12T09:43:54;40.60;16.60
7530;DHT22;3806;52.270;10.544;2022-10-12T09:46:37;40.20;16.70
7530;DHT22;3806;52.270;10.544;2022-10-12T09:49:04;40.30;16.50
7530;DHT22;3806;52.270;10.544;2022-10-12T09:51:30;40.70;16.50
7530;DHT22;3806;52.270;10.544;2022-10-12T09:53:57;40.90;16.10
7530;DHT22;3806;52.270;10.544;2022-10-12T09:56:48;40.60;16.10
7530;DHT22;3806;52.270;10.544;2022-10-12T09:59:35;40.00;16.60
7530;DHT22;3806;52.270;10.544;2022-10-12T10:04:36;39.30;16.70
7530;DHT22;3806;52.270;10.544;2022-10-12T10:07:23;38.50;16.70
7530;DHT22;3806;52.270;10.544;2022-10-12T10:15:27;36.30;18.30
7530;DHT22;3806;52.270;10.544;2022-10-12T10:17:56;36.30;18.30
7530;DHT22;3806;52.270;10.544;2022-10-12T10:22:59;36.80;18.00
7530;DHT22;3806;52.270;10.544;2022-10-12T10:25:26;37.40;17.80
7530;DHT22;3806;52.270;10.544;2022-10-12T10:28:20;37.90;17.10
7530;DHT22;3806;52.270;10.544;2022-10-12T10:31:02;38.40;16.90
7530;DHT22;3806;52.270;10.544;2022-10-12T10:33:30;38.60;16.70
7530;DHT22;3806;52.270;10.544;2022-10-12T10:36:17;39.10;16.40
7530;DHT22;3806;52.270;10.544;2022-10-12T10:41:19;39.90;16.10
7530;DHT22;3806;52.270;10.544;2022-10-12T10:43:48;40.30;15.70
7530;DHT22;3806;52.270;10.544;2022-10-12T10:46:20;40.20;15.40
7530;DHT22;3806;52.270;10.544;2022-10-12T10:48:56;39.90;15.70
7530;DHT22;3806;52.270;10.544;2022-10-12T10:51:52;39.90;15.60
7530;DHT22;3806;52.270;10.544;2022-10-12T10:56:48;39.80;15.70
7530;DHT22;3806;52.270;10.544;2022-10-12T11:05:07;38.70;16.00
7530;DHT22;3806;52.270;10.544;2022-10-12T11:07:56;38.40;15.90
7530;DHT22;3806;52.270;10.544;2022-10-12T11:10:41;38.10;16.20
7530;DHT22;3806;52.270;10.544;2022-10-12T11:13:33;37.90;16.20
7530;DHT22;3806;52.270;10.544;2022-10-12T11:16:13;37.60;16.30
7530;DHT22;3806;52.270;10.544;2022-10-12T11:21:34;37.10;16.70
7530;DHT22;3806;52.270;10.544;2022-10-12T11:24:15;36.40;17.10
7530;DHT22;3806;52.270;10.544;2022-10-12T11:26:56;36.10;17.40
7530;DHT22;3806;52.270;10.544;2022-10-12T11:29:22;36.20;17.20
7530;DHT22;3806;52.270;10.544;2022-10-12T11:31:54;36.10;17.00
7530;DHT22;3806;52.270;10.544;2022-10-12T11:34:24;35.90;17.20
7530;DHT22;3806;52.270;10.544;2022-10-12T11:36:53;35.30;17.30
7530;DHT22;3806;52.270;10.544;2022-10-12T11:39:34;33.90;18.10
7530;DHT22;3806;52.270;10.544;2022-10-12T11:42:04;32.00;19.40
7530;DHT22;3806;52.270;10.544;2022-10-12T11:44:41;30.00;20.90
7530;DHT22;3806;52.270;10.544;2022-10-12T11:47:12;28.20;22.60
7530;DHT22;3806;52.270;10.544;2022-10-12T11:50:15;26.90;24.10
7530;DHT22;3806;52.270;10.544;2022-10-12T11:52:47;25.40;25.50
7530;DHT22;3806;52.270;10.544;2022-10-12T11:55:28;24.50;26.50
7530;DHT22;3806;52.270;10.544;2022-10-12T11:57:59;23.80;27.60
7530;DHT22;3806;52.270;10.544;2022-10-12T12:03:14;22.60;28.50
7530;DHT22;3806;52.270;10.544;2022-10-12T12:05:41;22.20;29.00
7530;DHT22;3806;52.270;10.544;2022-10-12T12:08:21;22.10;29.50
7530;DHT22;3806;52.270;10.544;2022-10-12T12:11:01;21.90;29.90
7530;DHT22;3806;52.270;10.544;2022-10-12T12:13:27;21.60;30.30
7530;DHT22;3806;52.270;10.544;2022-10-12T12:18:29;21.30;31.20
7530;DHT22;3806;52.270;10.544;2022-10-12T12:21:07;21.30;31.50
7530;DHT22;3806;52.270;10.544;2022-10-12T12:23:39;21.80;30.70
7530;DHT22;3806;52.270;10.544;2022-10-12T12:28:37;23.30;29.50
7530;DHT22;3806;52.270;10.544;2022-10-12T12:33:50;25.60;27.70
7530;DHT22;3806;52.270;10.544;2022-10-12T12:36:36;26.40;26.50
7530;DHT22;3806;52.270;10.544;2022-10-12T12:39:07;26.90;26.10
7530;DHT22;3806;52.270;10.544;2022-10-12T12:41:54;27.10;25.90
7530;DHT22;3806;52.270;10.544;2022-10-12T12:52:26;26.40;26.20
7530;DHT22;3806;52.270;10.544;2022-10-12T12:55:28;25.80;26.50
7530;DHT22;3806;52.270;10.544;2022-10-12T13:09:31;23.30;29.10
7530;DHT22;3806;52.270;10.544;2022-10-12T13:12:37;23.30;29.20
7530;DHT22;3806;52.270;10.544;2022-10-12T13:20:45;24.20;28.70
7530;DHT22;3806;52.270;10.544;2022-10-12T13:23:16;24.60;28.20
7530;DHT22;3806;52.270;10.544;2022-10-12T13:25:47;25.10;28.10
7530;DHT22;3806;52.270;10.544;2022-10-12T13:28:20;25.60;27.90
7530;DHT22;3806;52.270;10.544;2022-10-12T13:31:10;25.90;26.90
7530;DHT22;3806;52.270;10.544;2022-10-12T13:36:19;26.40;26.50
7530;DHT22;3806;52.270;10.544;2022-10-12T13:38:45;26.60;26.20
7530;DHT22;3806;52.270;10.544;2022-10-12T13:41:17;26.80;26.10
7530;DHT22;3806;52.270;10.544;2022-10-12T13:43:54;26.90;25.90
7530;DHT22;3806;52.270;10.544;2022-10-12T13:49:26;26.40;26.10
7530;DHT22;3806;52.270;10.544;2022-10-12T13:51:56;26.00;26.60
7530;DHT22;3806;52.270;10.544;2022-10-12T13:57:03;25.60;26.90
7530;DHT22;3806;52.270;10.544;2022-10-12T13:59:34;25.40;27.00
7530;DHT22;3806;52.270;10.544;2022-10-12T14:02:01;25.10;27.40
7530;DHT22;3806;52.270;10.544;2022-10-12T14:04:29;24.80;27.80
7530;DHT22;3806;52.270;10.544;2022-10-12T14:07:05;24.40;28.00
7530;DHT22;3806;52.270;10.544;2022-10-12T14:09:43;24.20;28.10
7530;DHT22;3806;52.270;10.544;2022-10-12T14:12:10;24.00;28.40
7530;DHT22;3806;52.270;10.544;2022-10-12T14:14:38;23.70;28.30
7530;DHT22;3806;52.270;10.544;2022-10-12T14:17:05;23.40;28.70
7530;DHT22;3806;52.270;10.544;2022-10-12T14:19:34;22.90;29.30
7530;DHT22;3806;52.270;10.544;2022-10-12T14:22:00;22.60;29.70
7530;DHT22;3806;52.270;10.544;2022-10-12T14:24:27;22.10;30.20
7530;DHT22;3806;52.270;10.544;2022-10-12T14:27:03;21.70;30.90
7530;DHT22;3806;52.270;10.544;2022-10-12T14:29:41;21.30;31.30
7530;DHT22;3806;52.270;10.544;2022-10-12T14:34:46;20.80;32.10
7530;DHT22;3806;52.270;10.544;2022-10-12T14:37:19;20.60;32.40
7530;DHT22;3806;52.270;10.544;2022-10-12T14:39:47;20.40;33.30
7530;DHT22;3806;52.270;10.544;2022-10-12T14:44:53;20.00;33.50
7530;DHT22;3806;52.270;10.544;2022-10-12T14:47:21;19.80;34.30
7530;DHT22;3806;52.270;10.544;2022-10-12T14:49:50;19.70;34.00
7530;DHT22;3806;52.270;10.544;2022-10-12T14:54:52;19.30;35.30
7530;DHT22;3806;52.270;10.544;2022-10-12T14:57:18;19.10;35.80
7530;DHT22;3806;52.270;10.544;2022-10-12T14:59:44;18.90;36.10
7530;DHT22;3806;52.270;10.544;2022-10-12T15:02:25;18.80;36.30
7530;DHT22;3806;52.270;10.544;2022-10-12T15:04:52;18.60;36.90
7530;DHT22;3806;52.270;10.544;2022-10-12T15:07:20;18.50;36.90
7530;DHT22;3806;52.270;10.544;2022-10-12T15:09:46;18.50;37.10
7530;DHT22;3806;52.270;10.544;2022-10-12T15:12:14;18.40;37.20
7530;DHT22;3806;52.270;10.544;2022-10-12T15:14:41;18.40;37.50
7530;DHT22;3806;52.270;10.544;2022-10-12T15:17:10;18.30;37.70
7530;DHT22;3806;52.270;10.544;2022-10-12T15:19:36;18.20;38.10
7530;DHT22;3806;52.270;10.544;2022-10-12T15:22:01;18.20;38.50
7530;DHT22;3806;52.270;10.544;2022-10-12T15:24:27;18.10;39.50
7530;DHT22;3806;52.270;10.544;2022-10-12T15:26:52;18.00;39.30
7530;DHT22;3806;52.270;10.544;2022-10-12T15:29:18;17.90;39.30
7530;DHT22;3806;52.270;10.544;2022-10-12T15:31:43;17.90;39.40
7530;DHT22;3806;52.270;10.544;2022-10-12T15:34:13;17.80;39.80
7530;DHT22;3806;52.270;10.544;2022-10-12T15:36:39;17.80;40.10
7530;DHT22;3806;52.270;10.544;2022-10-12T15:39:05;17.70;40.30
7530;DHT22;3806;52.270;10.544;2022-10-12T15:41:30;17.60;41.50
7530;DHT22;3806;52.270;10.544;2022-10-12T15:43:56;17.50;42.00
7530;DHT22;3806;52.270;10.544;2022-10-12T15:46:22;17.40;42.50
7530;DHT22;3806;52.270;10.544;2022-10-12T15:48:48;17.30;43.10
7530;DHT22;3806;52.270;10.544;2022-10-12T15:51:19;17.30;44.00
7530;DHT22;3806;52.270;10.544;2022-10-12T15:53:47;17.20;44.60
7530;DHT22;3806;52.270;10.544;2022-10-12T15:56:13;17.10;45.10
7530;DHT22;3806;52.270;10.544;2022-10-12T15:58:39;17.00;45.60
7530;DHT22;3806;52.270;10.544;2022-10-12T16:01:06;17.00;45.90
7530;DHT22;3806;52.270;10.544;2022-10-12T16:03:31;17.00;46.60
7530;DHT22;3806;52.270;10.544;2022-10-12T16:05:58;16.90;46.90
7530;DHT22;3806;52.270;10.544;2022-10-12T16:08:23;16.90;47.40
7530;DHT22;3806;52.270;10.544;2022-10-12T16:10:49;16.80;47.60
7530;DHT22;3806;52.270;10.544;2022-10-12T16:13:15;16.70;48.40
7530;DHT22;3806;52.270;10.544;2022-10-12T16:15:42;16.70;49.60
7530;DHT22;3806;52.270;10.544;2022-10-12T16:18:08;16.60;49.40
7530;DHT22;3806;52.270;10.544;2022-10-12T16:20:35;16.50;49.80
7530;DHT22;3806;52.270;10.544;2022-10-12T16:23:04;16.50;50.00
7530;DHT22;3806;52.270;10.544;2022-10-12T16:25:30;16.40;50.40
7530;DHT22;3806;52.270;10.544;2022-10-12T16:27:56;16.30;51.30
7530;DHT22;3806;52.270;10.544;2022-10-12T16:30:23;16.30;51.90
7530;DHT22;3806;52.270;10.544;2022-10-12T16:32:49;16.10;52.80
7530;DHT22;3806;52.270;10.544;2022-10-12T16:35:15;16.00;53.90
7530;DHT22;3806;52.270;10.544;2022-10-12T16:37:41;15.90;54.30
7530;DHT22;3806;52.270;10.544;2022-10-12T16:40:08;15.80;55.30
7530;DHT22;3806;52.270;10.544;2022-10-12T16:42:34;15.80;56.20
7530;DHT22;3806;52.270;10.544;2022-10-12T16:45:00;15.70;57.20
7530;DHT22;3806;52.270;10.544;2022-10-12T16:47:26;15.60;58.20
7530;DHT22;3806;52.270;10.544;2022-10-12T16:49:52;15.50;59.00
7530;DHT22;3806;52.270;10.544;2022-10-12T16:52:21;15.40;59.20
7530;DHT22;3806;52.270;10.544;2022-10-12T16:54:53;15.40;59.60
7530;DHT22;3806;52.270;10.544;2022-10-12T16:57:19;15.30;60.10
7530;DHT22;3806;52.270;10.544;2022-10-12T16:59:46;15.20;61.30
7530;DHT22;3806;52.270;10.544;2022-10-12T17:02:13;15.10;62.70
7530;DHT22;3806;52.270;10.544;2022-10-12T17:04:39;15.10;64.10
7530;DHT22;3806;52.270;10.544;2022-10-12T17:07:04;15.00;65.30
7530;DHT22;3806;52.270;10.544;2022-10-12T17:09:30;14.90;66.80
7530;DHT22;3806;52.270;10.544;2022-10-12T17:11:56;14.80;67.90
7530;DHT22;3806;52.270;10.544;2022-10-12T17:14:22;14.80;69.00
7530;DHT22;3806;52.270;10.544;2022-10-12T17:16:47;14.70;69.70
7530;DHT22;3806;52.270;10.544;2022-10-12T17:19:25;14.60;70.50
7530;DHT22;3806;52.270;10.544;2022-10-12T17:21:55;14.60;70.80
7530;DHT22;3806;52.270;10.544;2022-10-12T17:24:24;14.60;71.60
7530;DHT22;3806;52.270;10.544;2022-10-12T17:26:51;14.50;71.90
7530;DHT22;3806;52.270;10.544;2022-10-12T17:29:18;14.40;72.70
7530;DHT22;3806;52.270;10.544;2022-10-12T17:31:45;14.50;73.40
7530;DHT22;3806;52.270;10.544;2022-10-12T17:34:33;14.30;74.10
7530;DHT22;3806;52.270;10.544;2022-10-12T17:36:59;14.20;75.50
7530;DHT22;3806;52.270;10.544;2022-10-12T17:39:27;14.10;76.60
7530;DHT22;3806;52.270;10.544;2022-10-12T17:41:53;14.00;78.00
7530;DHT22;3806;52.270;10.544;2022-10-12T17:44:19;13.90;79.20
7530;DHT22;3806;52.270;10.544;2022-10-12T17:46:46;13.90;80.20
7530;DHT22;3806;52.270;10.544;2022-10-12T17:49:13;13.80;81.00
7530;DHT22;3806;52.270;10.544;2022-10-12T17:51:39;13.80;81.80
7530;DHT22;3806;52.270;10.544;2022-10-12T17:54:08;13.70;82.40